Startpagina
METAR-TAF:

METAR-TAF

Vliegvelden :

Port of Spain, Trinidad, Trinidad en Tobago

breedte: 10-37N, lengte: 061-21W, hoogte: 12 m

Actueel weer

Dit bericht is 56 minuten geleden gemaakt, om 00:00 UTC
Wind 3 kt uit het oosten
Temperatuur 27°C
Vochtigheid 79%
Druk 1013 hPa
Zicht 10 km of meer
Weinig wolken op 1800 ft

METAR: TTPP 210000Z 10003KT 9999 FEW018 27/23 Q1013 NOSIG

Tijdstip: 20:56 (00:56 UTC)

Verwachting

Dit bericht is 2 uur en het 56 minuten geleden gemaakt, om 22:00 UTC
Verwachting geldig van 21 om 00 UTC tot 21 om 24 UTC
Wind 5 kt uit het oosten
Zicht 10 km of meer
Weinig wolken op 1600 ft
Wijzigt naar
van 21 om 12 UTC tot 21 om 14 UTC
Wind 13 kt uit het oostzuidoosten
Verspreide wolken op 2000 ft
Tijdelijke
van 21 om 16 UTC tot 21 om 22 UTC
Zicht: 5000 m
Weinig wolken op 1200 ft, Cumulonimbus.
Gebroken wolken op 1600 ft
regenbuien

TAF: TTPP 202200Z 2100/2124 10005KT 9999 FEW016 BECMG 2112/2114 11013KT SCT020 TEMPO 2116/2122 5000 SHRA FEW012CB BKN016

Waarnemingen en weersverwachtingen van meer dan 4000 vliegvelden (METAR en TAF).

De beschikbare stations zijn de gele en rode punten op de kaart.

Ga met uw muis naar het station om de naam te zien.

Klik dan om waarnemingen en weersverwachtingen te zien.

kaart wijzigen: klik op de groene knoppen met een zwart kruis om in te zoomen, op de groene knop met een streepje om uit te zoomen of op de groene pijlen voor aangrenzende kaarten.


METAR-TAF: